Terminal Aerodrome Forecast
Issued by NWS

Home | Current Version | Previous Version | Text Only | Print | Product List | Glossary Off
Versions: 1 2 3 4 5 6 7 8 9 10 11 12 13 14 15 16 17 18 19 20 21

000
FTUS42 KMHX 201100
TAFOAJ
TAF
KOAJ 201138Z 2012/2112 36003KT 2SM BR BKN005
      TEMPO 2012/2013 1/2SM FG OVC002
     FM201330 01005KT P6SM SCT040
     FM201800 VRB04KT P6SM VCTS BKN040CB
     FM210000 VRB02KT P6SM SCT200
     FM210600 VRB02KT 4SM BR SKC
      AMD LTD TO CLD VIS AND WIND=

USA.gov is the U.S. government's official web portal to all federal, state and local government web resources and services.